East Farms, Washington
Current Conditions -  °F | °C
As of 11:53 AM on Monday 22 Dec 2014 (Local Time) from KSFF Reporting Station
Clear Clear  
Wind Chill: 41°   Ceiling: Unl
Heat Index: 45°   Visibility: 10mi
Dew Point: 29°   Wind: 8mph
Humidity: 53%   Direction: 250°WSW
Pressure: 30.19"   Gusts: NA
Location:  47.7153°N, 117.066°W
Report Text: KSFF 221953Z 25007KT 10SM CLR 07/M02 A3019 RMK AO2 SLP230 T00721017
Loading
Personal Weather Stations






























Interactive Weather Map New forecast layout! Learn more

10-Day Weather Forecast

Advertisements
Track Severe Weather on mobile